Time;durP1;ratioP1;P1;durP2;ratioP2;P2;SDS_P1;SDS_P2;PMS_P1;PMS_P2;Temp;Humidity;BMP_temperature;BMP_pressure;BME280_temperature;BME280_humidity;BME280_pressure;Samples;Min_cycle;Max_cycle;Signal;HPM_P1;HPM_P2
2023/12/30 00:01:57;;;;;;;7.38;1.38;;;6.60;99.90;;;;;;5071216;28;19924;-70
2023/12/30 00:04:22;;;;;;;9.18;1.77;;;6.60;99.90;;;;;;5104243;28;20403;-70
2023/12/30 00:06:48;;;;;;;11.93;2.70;;;6.60;99.90;;;;;;5070356;28;20468;-70
2023/12/30 00:09:13;;;;;;;10.18;1.55;;;6.60;99.90;;;;;;5070805;28;20078;-70
2023/12/30 00:11:39;;;;;;;7.97;2.03;;;6.80;99.90;;;;;;5070138;28;20052;-70
2023/12/30 00:14:05;;;;;;;7.97;1.52;;;6.60;99.90;;;;;;5070296;28;20051;-71
2023/12/30 00:16:30;;;;;;;13.90;1.85;;;6.60;99.90;;;;;;5070961;28;20052;-70
2023/12/30 00:18:56;;;;;;;7.18;1.85;;;6.80;99.90;;;;;;5070046;28;20045;-71
2023/12/30 00:21:22;;;;;;;9.02;2.00;;;6.60;99.90;;;;;;5070295;28;20040;-70
2023/12/30 00:23:48;;;;;;;8.75;1.83;;;6.60;99.90;;;;;;5070363;28;20476;-70
2023/12/30 00:26:21;;;;;;;4.93;1.80;;;6.60;99.90;;;;;;5069709;28;20048;-70
2023/12/30 00:28:48;;;;;;;6.32;2.00;;;6.50;99.90;;;;;;5070788;28;20123;-70
2023/12/30 00:31:24;;;;;;;7.63;1.80;;;6.60;99.90;;;;;;5070155;28;20048;-70
2023/12/30 00:33:52;;;;;;;12.48;1.60;;;6.50;99.90;;;;;;5069611;28;20412;-70
2023/12/30 00:36:18;;;;;;;18.90;2.00;;;6.60;99.90;;;;;;5073382;28;20044;-70
2023/12/30 00:38:43;;;;;;;8.05;1.60;;;7.70;99.90;;;;;;5074673;28;20392;-70
2023/12/30 00:41:09;;;;;;;6.93;1.42;;;6.60;99.90;;;;;;5072998;28;20055;-70
2023/12/30 00:43:36;;;;;;;9.45;1.60;;;6.60;99.90;;;;;;5073847;28;20052;-71
2023/12/30 00:46:02;;;;;;;8.70;1.60;;;6.60;99.90;;;;;;5073861;28;20052;-71
2023/12/30 00:48:28;;;;;;;12.93;1.60;;;6.60;99.90;;;;;;5073340;28;20058;-70
2023/12/30 00:50:53;;;;;;;11.10;1.95;;;6.60;99.90;;;;;;5074177;28;20133;-71
2023/12/30 00:53:20;;;;;;;;;;;6.60;99.90;;;;;;5075186;28;20491;-70
2023/12/30 00:55:46;;;;;;;15.00;2.22;;;6.50;99.90;;;;;;5073363;28;19920;-70
2023/12/30 00:58:11;;;;;;;11.32;2.20;;;6.50;99.90;;;;;;5073650;28;20048;-70
2023/12/30 01:00:37;;;;;;;10.48;1.88;;;6.40;99.90;;;;;;5074154;28;20045;-71
2023/12/30 01:03:03;;;;;;;;;;;6.50;99.90;;;;;;5073054;28;20044;-71
2023/12/30 01:05:28;;;;;;;13.15;2.05;;;6.50;99.90;;;;;;5073289;28;19974;-71
2023/12/30 01:07:54;;;;;;;15.10;2.25;;;6.50;99.90;;;;;;5072381;28;20033;-71
2023/12/30 01:10:19;;;;;;;12.40;2.20;;;6.70;99.90;;;;;;5073332;28;20378;-70
2023/12/30 01:12:45;;;;;;;9.25;1.80;;;6.60;99.90;;;;;;5073673;28;20076;-71
2023/12/30 01:15:10;;;;;;;;;;;7.00;99.90;;;;;;5073199;28;20047;-70
2023/12/30 01:17:36;;;;;;;8.48;1.88;;;6.60;99.90;;;;;;5073474;28;19921;-71
2023/12/30 01:20:02;;;;;;;13.20;1.88;;;6.60;99.90;;;;;;5073118;28;20090;-71
2023/12/30 01:22:28;;;;;;;6.63;2.08;;;6.60;99.90;;;;;;5072533;28;20049;-71
2023/12/30 01:24:54;;;;;;;11.77;2.03;;;6.70;99.90;;;;;;5073630;28;20051;-71
2023/12/30 01:27:19;;;;;;;;;;;6.70;99.90;;;;;;5073621;28;20126;-71
2023/12/30 01:29:45;;;;;;;11.98;2.13;;;7.10;99.90;;;;;;5072502;28;19920;-70
2023/12/30 01:32:10;;;;;;;11.35;2.00;;;6.80;99.90;;;;;;5072980;28;20048;-71
2023/12/30 01:34:36;;;;;;;10.20;2.20;;;7.10;99.90;;;;;;5074471;28;20044;-71
2023/12/30 01:37:01;;;;;;;;;;;6.90;99.90;;;;;;5072739;28;20369;-71
2023/12/30 01:39:27;;;;;;;12.25;1.80;;;6.80;99.90;;;;;;5072941;28;19924;-71
2023/12/30 01:41:52;;;;;;;;;;;6.70;99.90;;;;;;5073720;28;20083;-70
2023/12/30 01:44:18;;;;;;;15.15;2.08;;;6.80;99.90;;;;;;5072199;28;19996;-70
2023/12/30 01:46:44;;;;;;;12.50;2.00;;;6.60;99.90;;;;;;5071676;28;20525;-70
2023/12/30 01:49:10;;;;;;;;;;;6.60;99.90;;;;;;5073638;28;20063;-71
2023/12/30 01:51:36;;;;;;;12.85;2.22;;;6.60;99.90;;;;;;5073200;28;19975;-70
2023/12/30 01:54:04;;;;;;;12.07;2.30;;;6.60;99.90;;;;;;5072749;28;20037;-71
2023/12/30 01:56:31;;;;;;;14.35;1.95;;;6.60;99.90;;;;;;5072575;28;20044;-71
2023/12/30 01:58:59;;;;;;;16.23;2.22;;;6.60;99.90;;;;;;5072431;28;20040;-71
2023/12/30 02:01:28;;;;;;;9.95;1.90;;;7.20;99.90;;;;;;5072132;28;20041;-71
2023/12/30 02:03:55;;;;;;;10.68;2.00;;;6.70;99.90;;;;;;5072949;28;20098;-70
2023/12/30 02:06:21;;;;;;;9.27;2.13;;;7.30;99.90;;;;;;5071380;28;20460;-71
2023/12/30 02:08:47;;;;;;;8.82;1.70;;;6.90;99.90;;;;;;5072620;28;20084;-71
2023/12/30 02:11:14;;;;;;;8.77;2.03;;;6.90;99.90;;;;;;5071377;28;20040;-71
2023/12/30 02:13:44;;;;;;;12.77;2.38;;;7.10;99.90;;;;;;5073012;28;20044;-71
2023/12/30 02:16:10;;;;;;;8.70;2.42;;;7.10;99.90;;;;;;5071917;28;20421;-71
2023/12/30 02:18:36;;;;;;;10.18;1.90;;;7.00;99.90;;;;;;5071874;28;20032;-71
2023/12/30 02:21:02;;;;;;;12.75;2.30;;;6.90;99.90;;;;;;5073513;28;20051;-71
2023/12/30 02:23:28;;;;;;;9.50;2.22;;;7.00;99.90;;;;;;5072214;28;20045;-70
2023/12/30 02:25:53;;;;;;;;;;;7.00;99.90;;;;;;5072145;28;20055;-71
2023/12/30 02:28:19;;;;;;;12.00;2.00;;;7.00;99.90;;;;;;5071807;28;19924;-70
2023/12/30 02:30:44;;;;;;;;;;;7.00;99.90;;;;;;5072441;28;20128;-70
2023/12/30 02:33:10;;;;;;;13.35;1.95;;;6.90;99.90;;;;;;5070530;28;20292;-71
2023/12/30 02:35:35;;;;;;;14.45;2.53;;;7.30;99.90;;;;;;5072223;28;20457;-71
2023/12/30 02:38:01;;;;;;;14.27;2.40;;;7.60;99.90;;;;;;5071661;28;20546;-71
2023/12/30 02:40:26;;;;;;;10.63;1.77;;;6.90;99.90;;;;;;5071080;28;20032;-70
2023/12/30 02:42:52;;;;;;;12.15;1.60;;;6.90;99.90;;;;;;5071596;28;20036;-70
2023/12/30 02:45:18;;;;;;;11.38;1.75;;;6.90;99.90;;;;;;5071916;28;20518;-71
2023/12/30 02:47:43;;;;;;;;;;;7.00;99.90;;;;;;5071169;28;20044;-71
2023/12/30 02:50:09;;;;;;;10.00;2.28;;;7.10;99.90;;;;;;5071602;28;20400;-71
2023/12/30 02:52:35;;;;;;;13.25;1.88;;;7.10;99.90;;;;;;5071236;28;20503;-71
2023/12/30 02:55:03;;;;;;;9.85;1.77;;;7.40;99.90;;;;;;5104632;28;20083;-71
2023/12/30 02:57:28;;;;;;;13.15;2.00;;;7.10;99.90;;;;;;5071404;28;20452;-71
2023/12/30 02:59:54;;;;;;;10.35;2.08;;;7.00;99.90;;;;;;5071655;28;20070;-71
2023/12/30 03:02:19;;;;;;;10.50;1.75;;;7.00;99.90;;;;;;5069867;28;20071;-71
2023/12/30 03:04:45;;;;;;;11.57;2.30;;;7.00;99.90;;;;;;5071287;28;20079;-71
2023/12/30 03:07:11;;;;;;;;;;;7.10;99.90;;;;;;5071183;28;20407;-71
2023/12/30 03:09:36;;;;;;;8.55;1.90;;;7.20;99.90;;;;;;5070459;28;19920;-71
2023/12/30 03:12:02;;;;;;;12.00;2.00;;;7.10;99.90;;;;;;5071058;28;20052;-71
2023/12/30 03:14:28;;;;;;;14.98;2.30;;;7.20;99.90;;;;;;5070661;28;20036;-71
2023/12/30 03:16:54;;;;;;;;;;;7.20;99.90;;;;;;5071752;28;20044;-71
2023/12/30 03:19:19;;;;;;;16.20;2.35;;;7.20;99.90;;;;;;5071063;28;19967;-71
2023/12/30 03:21:45;;;;;;;11.40;1.90;;;7.20;99.90;;;;;;5070814;28;20068;-71
2023/12/30 03:24:11;;;;;;;6.88;2.25;;;7.90;99.90;;;;;;5071041;28;20514;-71
2023/12/30 03:26:37;;;;;;;16.20;2.10;;;7.20;99.90;;;;;;5071325;28;20044;-71
2023/12/30 03:29:02;;;;;;;12.90;2.35;;;7.30;99.90;;;;;;5070187;28;20048;-71
2023/12/30 03:31:28;;;;;;;9.23;2.25;;;7.20;99.90;;;;;;5070907;28;20392;-71
2023/12/30 03:33:55;;;;;;;12.10;2.33;;;7.20;99.90;;;;;;5070266;28;20472;-71
2023/12/30 03:36:21;;;;;;;13.95;2.28;;;7.20;99.90;;;;;;5069629;28;20079;-71
2023/12/30 03:38:53;;;;;;;8.73;2.13;;;7.10;99.90;;;;;;5071492;28;20048;-71
2023/12/30 03:41:18;;;;;;;6.18;1.60;;;7.20;99.90;;;;;;5070581;28;20103;-70
2023/12/30 03:43:45;;;;;;;13.90;2.13;;;7.60;99.90;;;;;;5070651;28;20064;-71
2023/12/30 03:46:10;;;;;;;10.13;1.83;;;7.10;99.90;;;;;;5070824;28;20064;-71
2023/12/30 03:48:37;;;;;;;11.85;1.77;;;7.10;99.90;;;;;;5071101;28;20048;-71
2023/12/30 03:51:03;;;;;;;13.45;2.50;;;7.10;99.90;;;;;;5069570;28;20044;-71
2023/12/30 03:53:29;;;;;;;11.38;2.20;;;7.10;99.90;;;;;;5071288;28;20396;-71
2023/12/30 03:55:55;;;;;;;13.80;2.33;;;7.20;99.90;;;;;;5071017;28;20484;-71
2023/12/30 03:58:21;;;;;;;7.25;2.20;;;7.20;99.90;;;;;;5069906;28;20093;-71
2023/12/30 04:00:46;;;;;;;8.55;2.17;;;7.20;99.90;;;;;;5070998;28;20040;-71
2023/12/30 04:03:12;;;;;;;15.13;2.60;;;7.50;99.90;;;;;;5071852;28;20048;-71
2023/12/30 04:05:37;;;;;;;;;;;7.20;99.90;;;;;;5071763;28;20145;-71
2023/12/30 04:08:03;;;;;;;10.32;2.15;;;7.20;99.90;;;;;;5070844;28;20295;-71
2023/12/30 04:10:29;;;;;;;;;;;7.20;99.90;;;;;;5073384;28;20049;-71
2023/12/30 04:12:54;;;;;;;11.15;2.50;;;7.20;99.90;;;;;;5073672;28;19920;-71
2023/12/30 04:15:21;;;;;;;13.25;2.50;;;7.20;99.90;;;;;;5074399;28;20044;-71
2023/12/30 04:17:47;;;;;;;19.85;2.60;;;7.20;99.90;;;;;;5075150;28;20080;-71
2023/12/30 04:20:13;;;;;;;10.27;2.47;;;7.20;99.90;;;;;;5074593;28;20476;-71
2023/12/30 04:22:39;;;;;;;;;;;7.10;99.90;;;;;;5075296;28;20048;-71
2023/12/30 04:25:05;;;;;;;8.35;1.80;;;7.10;99.90;;;;;;5073712;28;20493;-71
2023/12/30 04:27:31;;;;;;;9.73;1.85;;;7.10;99.90;;;;;;5073958;28;20036;-71
2023/12/30 04:29:57;;;;;;;12.73;1.90;;;7.10;99.90;;;;;;5074291;28;20094;-71
2023/12/30 04:32:22;;;;;;;10.02;1.95;;;7.70;99.90;;;;;;5073403;28;20040;-71
2023/12/30 04:34:49;;;;;;;12.50;2.63;;;7.10;99.90;;;;;;5074339;28;20036;-71
2023/12/30 04:37:14;;;;;;;7.93;2.00;;;7.10;99.90;;;;;;5074082;28;20047;-71
2023/12/30 04:39:40;;;;;;;13.20;2.28;;;7.10;99.90;;;;;;5073509;28;20171;-71
2023/12/30 04:42:05;;;;;;;;;;;7.10;99.90;;;;;;5074666;28;20116;-71
2023/12/30 04:44:31;;;;;;;8.98;1.90;;;7.10;99.90;;;;;;5075660;28;19925;-70
2023/12/30 04:46:56;;;;;;;11.45;2.10;;;7.00;99.90;;;;;;5074631;28;20052;-70
2023/12/30 04:49:22;;;;;;;9.90;2.22;;;7.00;99.90;;;;;;5073178;28;20492;-70
2023/12/30 04:51:48;;;;;;;16.48;2.65;;;7.00;99.90;;;;;;5074176;28;20408;-70
2023/12/30 04:54:14;;;;;;;11.80;2.33;;;7.10;99.90;;;;;;5072968;28;20040;-70
2023/12/30 04:56:39;;;;;;;;;;;7.00;99.90;;;;;;5108112;28;20048;-70
2023/12/30 04:59:05;;;;;;;13.23;2.55;;;6.90;99.90;;;;;;5072837;28;20283;-69
2023/12/30 05:01:31;;;;;;;14.15;2.40;;;7.00;99.90;;;;;;5072934;28;20056;-70
2023/12/30 05:03:56;;;;;;;9.88;2.10;;;6.90;99.90;;;;;;5074042;28;20044;-69
2023/12/30 05:06:23;;;;;;;16.67;2.28;;;7.00;99.90;;;;;;5073580;28;20399;-71
2023/12/30 05:08:50;;;;;;;11.60;2.47;;;7.00;99.90;;;;;;5072626;28;20055;-70
2023/12/30 05:11:16;;;;;;;11.80;2.28;;;7.00;99.90;;;;;;5073254;28;20400;-71
2023/12/30 05:13:42;;;;;;;15.52;2.22;;;7.00;99.90;;;;;;5073774;28;20037;-71
2023/12/30 05:16:08;;;;;;;15.98;2.42;;;7.00;99.90;;;;;;5072378;28;20044;-70
2023/12/30 05:18:34;;;;;;;13.85;2.55;;;7.00;99.90;;;;;;5105440;28;20476;-69
2023/12/30 05:20:59;;;;;;;12.93;2.25;;;7.00;99.90;;;;;;5072617;28;20049;-69
2023/12/30 05:23:25;;;;;;;;;;;7.10;99.90;;;;;;5073544;28;20041;-69
2023/12/30 05:25:50;;;;;;;12.95;2.60;;;7.00;99.90;;;;;;5073385;28;19924;-69
2023/12/30 05:28:16;;;;;;;11.48;1.80;;;7.10;99.90;;;;;;5072337;28;20400;-70
2023/12/30 05:30:42;;;;;;;;;;;7.00;99.90;;;;;;5074086;28;20076;-69
2023/12/30 05:33:07;;;;;;;13.00;2.50;;;7.00;99.90;;;;;;5072419;28;19921;-69
2023/12/30 05:35:35;;;;;;;12.77;2.00;;;7.00;99.90;;;;;;5072463;28;20045;-69
2023/12/30 05:38:01;;;;;;;12.02;2.40;;;7.00;99.90;;;;;;5072472;28;20049;-70
2023/12/30 05:40:27;;;;;;;10.43;2.00;;;7.00;99.90;;;;;;5073065;28;20113;-69
2023/12/30 05:42:52;;;;;;;11.52;2.13;;;7.10;99.90;;;;;;5072343;28;20582;-69
2023/12/30 05:45:18;;;;;;;;;;;7.30;99.90;;;;;;5073081;28;20048;-69
2023/12/30 05:47:43;;;;;;;9.82;1.85;;;7.00;99.90;;;;;;5072675;28;19920;-69
2023/12/30 05:50:12;;;;;;;14.02;2.20;;;7.00;99.90;;;;;;5071753;28;20037;-69
2023/12/30 05:52:41;;;;;;;13.13;2.17;;;7.00;99.90;;;;;;5072800;28;20048;-69
2023/12/30 05:55:07;;;;;;;13.00;2.40;;;7.00;99.90;;;;;;5072337;28;20045;-69
2023/12/30 05:57:32;;;;;;;13.70;2.28;;;7.00;99.90;;;;;;5072277;28;20045;-69
2023/12/30 05:59:58;;;;;;;;;;;7.00;99.90;;;;;;5073100;28;20068;-69
2023/12/30 06:02:23;;;;;;;10.05;2.22;;;7.00;99.90;;;;;;5072943;28;19921;-69
2023/12/30 06:04:49;;;;;;;;;;;7.50;99.90;;;;;;5071845;28;20484;-69
2023/12/30 06:07:15;;;;;;;9.88;2.15;;;7.00;99.90;;;;;;5072195;28;19924;-69
2023/12/30 06:09:44;;;;;;;13.13;2.30;;;7.00;99.90;;;;;;5072327;28;20051;-69
2023/12/30 06:12:10;;;;;;;13.13;1.80;;;7.00;99.90;;;;;;5071423;28;20044;-69
2023/12/30 06:14:36;;;;;;;11.55;2.03;;;7.00;99.90;;;;;;5072321;28;20063;-69
2023/12/30 06:17:02;;;;;;;8.48;2.28;;;7.60;99.90;;;;;;5071931;28;20480;-69
2023/12/30 06:19:28;;;;;;;12.85;2.13;;;7.10;99.90;;;;;;5071863;28;20086;-69
2023/12/30 06:21:54;;;;;;;11.07;1.85;;;7.10;99.90;;;;;;5072391;28;20048;-69
2023/12/30 06:24:19;;;;;;;;;;;7.10;99.90;;;;;;5071295;28;20044;-70
2023/12/30 06:26:45;;;;;;;10.23;1.88;;;7.20;99.90;;;;;;5072287;28;19920;-69
2023/12/30 06:29:10;;;;;;;;;;;6.30;99.90;;;;;;5072343;28;20080;-69
2023/12/30 06:31:41;;;;;;;9.77;2.15;;;7.00;99.90;;;;;;5071256;28;19924;-69
2023/12/30 06:34:07;;;;;;;13.30;2.33;;;7.00;99.90;;;;;;5071520;28;20056;-69
2023/12/30 06:36:32;;;;;;;7.43;1.75;;;7.00;99.90;;;;;;5072050;28;20507;-69
2023/12/30 06:39:01;;;;;;;10.05;1.92;;;7.00;99.90;;;;;;5104626;28;20431;-68
2023/12/30 06:41:27;;;;;;;9.90;2.10;;;7.30;99.90;;;;;;5071144;28;20037;-70
2023/12/30 06:43:52;;;;;;;10.32;1.90;;;7.50;99.90;;;;;;5071732;28;20120;-70
2023/12/30 06:46:22;;;;;;;9.77;2.25;;;7.10;99.90;;;;;;5070641;28;20475;-70
2023/12/30 06:48:48;;;;;;;11.20;2.10;;;7.10;99.90;;;;;;5071844;28;20078;-70
2023/12/30 06:51:13;;;;;;;9.10;1.85;;;7.00;99.90;;;;;;5071329;28;20094;-70
2023/12/30 06:53:39;;;;;;;;;;;6.80;99.90;;;;;;5071340;28;20048;-70
2023/12/30 06:56:08;;;;;;;12.93;2.17;;;6.80;99.90;;;;;;5072735;28;19928;-71
2023/12/30 06:58:34;;;;;;;11.07;1.98;;;6.80;99.90;;;;;;5071663;28;20049;-70
2023/12/30 07:00:59;;;;;;;15.68;2.55;;;6.70;99.90;;;;;;5070275;28;20048;-69
2023/12/30 07:03:25;;;;;;;8.27;2.22;;;7.20;99.90;;;;;;5071629;28;20483;-69
2023/12/30 07:05:50;;;;;;;;;;;6.70;99.90;;;;;;5071374;28;20060;-72
2023/12/30 07:08:19;;;;;;;7.63;1.70;;;6.60;99.90;;;;;;5104438;28;19921;-70
2023/12/30 07:10:44;;;;;;;12.55;2.15;;;6.70;99.90;;;;;;5072688;28;20040;-70
2023/12/30 07:13:11;;;;;;;7.32;2.17;;;6.60;99.90;;;;;;5070968;28;20407;-72
2023/12/30 07:15:39;;;;;;;10.60;2.15;;;6.60;99.90;;;;;;5070237;28;20116;-71
2023/12/30 07:18:05;;;;;;;8.05;1.80;;;6.60;99.90;;;;;;5071087;28;20092;-71
2023/12/30 07:20:30;;;;;;;9.93;2.35;;;6.60;99.90;;;;;;5070715;28;20044;-70
2023/12/30 07:23:02;;;;;;;10.52;2.58;;;6.70;99.90;;;;;;5072141;28;20044;-76
2023/12/30 07:25:27;;;;;;;10.02;2.00;;;6.70;99.90;;;;;;5070548;28;20048;-72
2023/12/30 07:27:53;;;;;;;8.55;2.00;;;6.80;99.90;;;;;;5070617;28;20041;-75
2023/12/30 07:30:18;;;;;;;6.88;1.77;;;6.60;99.90;;;;;;5070858;28;20599;-70
2023/12/30 07:32:44;;;;;;;14.63;2.30;;;7.00;99.90;;;;;;5071225;28;20131;-71
2023/12/30 07:35:10;;;;;;;7.18;2.10;;;6.50;99.90;;;;;;5069702;28;20040;-71
2023/12/30 07:37:35;;;;;;;;;;;6.80;99.90;;;;;;5071471;28;20183;-72
2023/12/30 07:40:02;;;;;;;13.75;2.67;;;6.60;99.90;;;;;;5070934;28;20390;-74
2023/12/30 07:42:28;;;;;;;10.20;2.38;;;6.60;99.90;;;;;;5070183;28;20055;-70
2023/12/30 07:44:54;;;;;;;10.60;2.25;;;6.50;99.90;;;;;;5073986;28;20388;-70
2023/12/30 07:47:20;;;;;;;12.77;2.13;;;6.50;99.90;;;;;;5074649;28;20048;-67
2023/12/30 07:49:47;;;;;;;8.85;2.33;;;6.60;99.90;;;;;;5075021;28;20102;-69
2023/12/30 07:52:12;;;;;;;12.43;1.95;;;6.60;99.90;;;;;;5075651;28;20041;-68
2023/12/30 07:54:38;;;;;;;13.50;2.50;;;6.90;99.90;;;;;;5074623;28;20416;-68
2023/12/30 07:57:04;;;;;;;12.32;2.08;;;6.60;99.90;;;;;;5073994;28;20470;-71
2023/12/30 07:59:29;;;;;;;16.92;2.17;;;6.70;99.90;;;;;;5074689;28;20392;-68
2023/12/30 08:01:56;;;;;;;8.40;1.80;;;6.60;99.90;;;;;;5074808;28;20048;-75
2023/12/30 08:04:28;;;;;;;12.05;1.92;;;6.70;99.90;;;;;;5073972;28;20421;-70
2023/12/30 08:06:54;;;;;;;8.27;2.10;;;7.20;99.90;;;;;;5074134;28;20044;-72
2023/12/30 08:09:19;;;;;;;10.65;2.13;;;6.70;99.90;;;;;;5075355;28;20056;-74
2023/12/30 08:11:45;;;;;;;14.65;3.13;;;6.70;99.90;;;;;;5073583;28;20404;-75
2023/12/30 08:14:11;;;;;;;15.85;2.95;;;6.70;99.90;;;;;;5075523;28;20056;-72
2023/12/30 08:16:36;;;;;;;;;;;6.70;99.90;;;;;;5075726;28;20463;-67
2023/12/30 08:19:05;;;;;;;8.75;2.47;;;6.70;99.90;;;;;;5072664;28;19920;-69
2023/12/30 08:21:31;;;;;;;9.90;2.05;;;6.80;99.90;;;;;;5073929;28;20047;-68
2023/12/30 08:23:58;;;;;;;14.20;2.35;;;6.90;99.90;;;;;;5071277;28;20052;-68
2023/12/30 08:26:25;;;;;;;13.25;2.30;;;6.80;99.90;;;;;;5071696;28;20033;-69
2023/12/30 08:28:51;;;;;;;14.45;2.15;;;6.80;99.90;;;;;;5070639;28;20045;-69
2023/12/30 08:31:17;;;;;;;9.65;2.20;;;6.90;99.90;;;;;;5070858;28;20071;-68
2023/12/30 08:33:43;;;;;;;13.13;2.33;;;7.20;99.90;;;;;;5072197;28;20079;-68
2023/12/30 08:36:09;;;;;;;11.35;2.08;;;7.00;99.90;;;;;;5070556;28;20135;-69
2023/12/30 08:38:34;;;;;;;13.43;2.17;;;7.00;99.90;;;;;;5070325;28;20526;-69
2023/12/30 08:41:01;;;;;;;;;;;7.00;99.90;;;;;;5069580;28;20063;-69
2023/12/30 08:43:27;;;;;;;12.63;2.17;;;7.00;99.90;;;;;;5070901;28;20003;-69
2023/12/30 08:45:53;;;;;;;10.52;1.90;;;7.00;99.90;;;;;;5069874;28;20045;-69
2023/12/30 08:48:19;;;;;;;12.45;2.25;;;7.00;99.90;;;;;;5070350;28;20044;-68
2023/12/30 08:50:44;;;;;;;15.25;2.25;;;7.00;99.90;;;;;;5071326;28;20044;-69
2023/12/30 08:53:13;;;;;;;;;;;7.00;99.90;;;;;;5072749;28;20094;-68
2023/12/30 08:55:39;;;;;;;9.90;2.92;;;7.10;99.90;;;;;;5073092;28;19921;-68
2023/12/30 08:58:04;;;;;;;11.30;2.90;;;7.10;99.90;;;;;;5073134;28;20048;-69
2023/12/30 09:00:30;;;;;;;;;;;7.20;99.90;;;;;;5073482;28;20048;-68
2023/12/30 09:02:56;;;;;;;9.75;2.67;;;7.20;99.90;;;;;;5074120;28;20303;-69
2023/12/30 09:05:22;;;;;;;11.05;2.35;;;7.40;99.90;;;;;;5073210;28;20488;-69
2023/12/30 09:07:51;;;;;;;6.10;1.50;;;7.40;99.90;;;;;;5072879;28;20135;-69
2023/12/30 09:10:20;;;;;;;11.35;2.35;;;7.50;99.90;;;;;;5073572;28;20076;-69
2023/12/30 09:12:47;;;;;;;11.50;1.85;;;7.60;99.90;;;;;;5073661;28;20090;-69
2023/12/30 09:15:12;;;;;;;10.88;1.90;;;7.80;99.90;;;;;;5072295;28;20381;-69
2023/12/30 09:17:38;;;;;;;12.82;2.30;;;8.20;99.90;;;;;;5073579;28;20048;-69
2023/12/30 09:20:04;;;;;;;8.73;1.80;;;8.20;99.90;;;;;;5073585;28;20047;-68
2023/12/30 09:22:30;;;;;;;14.25;2.45;;;8.50;99.90;;;;;;5074185;28;20550;-69
2023/12/30 09:24:56;;;;;;;11.68;2.05;;;8.80;99.90;;;;;;5073279;28;20040;-69
2023/12/30 09:27:22;;;;;;;11.57;2.67;;;9.10;99.90;;;;;;5072066;28;20055;-69
2023/12/30 09:29:48;;;;;;;10.30;2.13;;;9.80;99.90;;;;;;5073597;28;20066;-69
2023/12/30 09:32:14;;;;;;;8.25;1.73;;;9.50;99.90;;;;;;5073039;28;20049;-69
2023/12/30 09:34:40;;;;;;;7.68;1.80;;;9.90;99.90;;;;;;5071977;28;20041;-69
2023/12/30 09:37:05;;;;;;;9.38;1.95;;;9.80;99.90;;;;;;5072758;28;20470;-69
2023/12/30 09:39:31;;;;;;;;;;;9.90;99.90;;;;;;5073785;28;20052;-69
2023/12/30 09:41:56;;;;;;;8.93;2.30;;;10.20;99.90;;;;;;5072033;28;19965;-69
2023/12/30 09:44:23;;;;;;;9.13;2.00;;;10.00;99.90;;;;;;5072604;28;20049;-69
2023/12/30 09:46:50;;;;;;;9.38;2.25;;;10.30;99.90;;;;;;5072821;28;20095;-69
2023/12/30 09:49:16;;;;;;;8.50;2.42;;;10.50;99.90;;;;;;5071857;28;20048;-70
2023/12/30 09:51:42;;;;;;;10.10;1.90;;;10.60;99.90;;;;;;5072526;28;20042;-69
2023/12/30 09:54:08;;;;;;;9.60;2.13;;;10.80;99.90;;;;;;5072775;28;20048;-69
2023/12/30 09:56:35;;;;;;;11.68;2.20;;;10.90;99.90;;;;;;5072238;28;20044;-69
2023/12/30 09:59:02;;;;;;;10.32;2.30;;;11.00;99.90;;;;;;5072309;28;20083;-69
2023/12/30 10:01:28;;;;;;;12.18;2.92;;;11.40;99.90;;;;;;5072743;28;20053;-69
2023/12/30 10:03:54;;;;;;;9.60;3.30;;;11.60;99.90;;;;;;5072106;28;20041;-69
2023/12/30 10:06:21;;;;;;;9.95;3.20;;;11.80;99.90;;;;;;5072166;28;20041;-69
2023/12/30 10:08:49;;;;;;;10.93;2.92;;;12.20;99.90;;;;;;5071638;28;20086;-69
2023/12/30 10:11:16;;;;;;;12.57;1.88;;;12.70;99.90;;;;;;5071147;28;20123;-70
2023/12/30 10:13:41;;;;;;;7.88;2.00;;;12.80;99.90;;;;;;5072667;28;20139;-69
2023/12/30 10:16:08;;;;;;;6.25;1.55;;;13.10;99.90;;;;;;5072126;28;20132;-69
2023/12/30 10:18:37;;;;;;;10.07;2.67;;;13.40;99.90;;;;;;5072542;28;20078;-69
2023/12/30 10:21:04;;;;;;;11.60;2.78;;;13.70;99.90;;;;;;5072079;28;20078;-70
2023/12/30 10:23:34;;;;;;;10.43;2.20;;;13.70;99.90;;;;;;5071814;28;20045;-69
2023/12/30 10:26:02;;;;;;;9.45;2.28;;;13.70;99.90;;;;;;5073260;28;20072;-70
2023/12/30 10:28:28;;;;;;;14.70;2.22;;;14.10;99.90;;;;;;5071778;28;20101;-69
2023/12/30 10:31:02;;;;;;;7.45;1.90;;;14.30;99.90;;;;;;5071403;28;20041;-69
2023/12/30 10:33:27;;;;;;;10.38;1.70;;;14.40;99.90;;;;;;5072142;28;20048;-69
2023/12/30 10:35:54;;;;;;;11.52;2.80;;;14.60;99.90;;;;;;5072364;28;20364;-69
2023/12/30 10:38:21;;;;;;;9.75;2.00;;;14.60;99.90;;;;;;5070513;28;20052;-69
2023/12/30 10:40:47;;;;;;;5.00;1.58;;;14.80;99.90;;;;;;5069979;28;20063;-69
2023/12/30 10:43:13;;;;;;;10.60;4.03;;;14.90;99.90;;;;;;5070789;28;20433;-69
2023/12/30 10:45:39;;;;;;;8.48;2.42;;;14.70;99.90;;;;;;5071204;28;20051;-69
2023/12/30 10:48:06;;;;;;;11.23;2.88;;;14.70;99.90;;;;;;5071448;28;20063;-69
2023/12/30 10:50:32;;;;;;;8.80;2.50;;;14.50;99.90;;;;;;5071861;28;20097;-69
2023/12/30 10:53:31;;;;;;;7.07;1.88;;;14.50;99.90;;;;;;5070848;28;20044;-69
2023/12/30 10:56:01;;;;;;;7.68;1.85;;;14.30;99.90;;;;;;5072045;28;20048;-69
2023/12/30 10:58:32;;;;;;;14.27;2.63;;;14.50;99.90;;;;;;5072002;28;20052;-69
2023/12/30 11:01:00;;;;;;;9.10;2.20;;;14.80;99.90;;;;;;5070938;28;20049;-70
2023/12/30 11:03:27;;;;;;;9.02;2.15;;;14.60;99.90;;;;;;5071662;28;20049;-69
2023/12/30 11:06:14;;;;;;;8.40;2.00;;;14.70;99.90;;;;;;5071003;28;20070;-69
2023/12/30 11:08:44;;;;;;;7.20;2.20;;;14.30;99.90;;;;;;5071173;28;20052;-69
2023/12/30 11:11:14;;;;;;;8.75;1.88;;;13.90;99.90;;;;;;5071381;28;20098;-69
2023/12/30 11:13:44;;;;;;;7.65;1.90;;;13.60;99.90;;;;;;5070718;28;20049;-69
2023/12/30 11:16:17;;;;;;;9.15;2.13;;;13.30;99.90;;;;;;5070940;28;20082;-69
2023/12/30 11:18:50;;;;;;;7.68;2.03;;;13.10;99.90;;;;;;5071221;28;20048;-69
2023/12/30 11:21:35;;;;;;;8.68;1.92;;;13.00;99.90;;;;;;5070248;28;20055;-69
2023/12/30 11:24:03;;;;;;;8.05;1.48;;;13.10;99.90;;;;;;5071115;28;20056;-69
2023/12/30 11:26:29;;;;;;;5.90;1.73;;;12.50;99.90;;;;;;5071028;28;20127;-69
2023/12/30 11:29:00;;;;;;;8.63;1.60;;;11.70;99.90;;;;;;5070571;28;20079;-69
2023/12/30 11:31:36;;;;;;;8.02;1.73;;;11.20;99.90;;;;;;5071041;28;20094;-69
2023/12/30 11:34:04;;;;;;;7.97;1.60;;;10.90;99.90;;;;;;5070288;28;20545;-69
2023/12/30 11:36:30;;;;;;;8.45;2.05;;;10.90;99.90;;;;;;5070921;28;20055;-69
2023/12/30 11:38:58;;;;;;;21.27;13.15;;;10.60;99.90;;;;;;5071417;28;20070;-69
2023/12/30 11:41:25;;;;;;;12.73;4.85;;;10.40;99.90;;;;;;5070074;28;20090;-69
2023/12/30 11:43:51;;;;;;;7.50;2.50;;;10.00;99.90;;;;;;5070940;28;20064;-69
2023/12/30 11:46:17;;;;;;;11.30;2.13;;;10.10;99.90;;;;;;5071324;28;20044;-68
2023/12/30 11:48:43;;;;;;;15.48;1.90;;;9.70;99.90;;;;;;5070257;28;20548;-69
2023/12/30 11:51:09;;;;;;;7.00;1.85;;;9.70;99.90;;;;;;5070891;28;20048;-69
2023/12/30 11:53:35;;;;;;;8.48;1.77;;;9.90;99.90;;;;;;5071210;28;20040;-69
2023/12/30 11:56:02;;;;;;;11.70;1.75;;;9.60;99.90;;;;;;5070032;28;20205;-69
2023/12/30 11:58:30;;;;;;;9.18;1.85;;;9.80;99.90;;;;;;5072055;28;20045;-69
2023/12/30 12:00:56;;;;;;;6.85;1.80;;;10.10;99.90;;;;;;5072277;28;20119;-69
2023/12/30 12:03:24;;;;;;;5.80;1.58;;;9.80;99.90;;;;;;5103696;28;20479;-69
2023/12/30 12:05:50;;;;;;;7.07;1.90;;;10.00;99.90;;;;;;5071152;28;20435;-69
2023/12/30 12:08:15;;;;;;;11.38;1.65;;;9.80;99.90;;;;;;5070416;28;20039;-69
2023/12/30 12:10:41;;;;;;;10.35;1.52;;;9.70;99.90;;;;;;5070132;28;20049;-68
2023/12/30 12:13:09;;;;;;;8.73;1.75;;;9.40;99.90;;;;;;5070380;28;20432;-68
2023/12/30 12:15:35;;;;;;;10.02;1.70;;;9.50;99.90;;;;;;5070600;28;20059;-68
2023/12/30 12:18:01;;;;;;;6.55;1.83;;;9.40;99.90;;;;;;5069674;28;20044;-69
2023/12/30 12:20:28;;;;;;;8.60;1.70;;;9.40;99.90;;;;;;5070747;28;20043;-69
2023/12/30 12:22:54;;;;;;;6.53;1.35;;;9.70;99.90;;;;;;5070800;28;20048;-69
2023/12/30 12:25:20;;;;;;;9.38;1.70;;;9.70;99.90;;;;;;5069270;28;20089;-68
2023/12/30 12:27:48;;;;;;;7.85;1.60;;;9.50;99.90;;;;;;5070914;28;20131;-69
2023/12/30 12:30:14;;;;;;;8.35;1.98;;;9.30;99.90;;;;;;5069823;28;20551;-69
2023/12/30 12:32:41;;;;;;;8.48;1.70;;;9.20;99.90;;;;;;5074475;28;20400;-68
2023/12/30 12:35:07;;;;;;;10.43;1.50;;;9.30;99.90;;;;;;5073690;28;20071;-69
2023/12/30 12:37:33;;;;;;;6.32;1.92;;;9.20;99.90;;;;;;5073813;28;20044;-68
2023/12/30 12:39:59;;;;;;;9.23;1.63;;;9.20;99.90;;;;;;5073990;28;20052;-69
2023/12/30 12:42:25;;;;;;;9.68;1.70;;;9.20;99.90;;;;;;5073864;28;20041;-68
2023/12/30 12:44:51;;;;;;;8.50;1.23;;;9.20;99.90;;;;;;5073755;28;20053;-69
2023/12/30 12:47:17;;;;;;;8.60;1.48;;;9.30;99.90;;;;;;5073636;28;20056;-68
2023/12/30 12:49:43;;;;;;;9.43;1.73;;;9.60;99.90;;;;;;5074356;28;20134;-69
2023/12/30 12:52:11;;;;;;;12.55;1.80;;;9.40;99.90;;;;;;5072456;28;20126;-68
2023/12/30 12:54:36;;;;;;;11.05;1.80;;;9.50;99.90;;;;;;5074914;28;20048;-68